createdAt,value
2022-10-05T04:03:05.732Z,99215.00
2022-10-05T04:07:38.023Z,99222.81
2022-10-05T04:11:58.084Z,99220.53
2022-10-05T04:16:23.099Z,99222.66
2022-10-05T04:20:45.025Z,99223.34
2022-10-05T04:25:00.261Z,99221.53
2022-10-05T04:29:24.751Z,99225.78
2022-10-05T04:33:36.475Z,99216.50
2022-10-05T04:38:03.619Z,99221.44
2022-10-05T04:42:28.642Z,99210.84
2022-10-05T04:47:02.116Z,99203.81
2022-10-05T04:51:20.621Z,99201.06
2022-10-05T04:55:58.069Z,99204.03
2022-10-05T05:00:24.393Z,99203.22
2022-10-05T05:04:59.456Z,99212.34
2022-10-05T05:09:29.714Z,99210.56
2022-10-05T05:13:57.848Z,99204.53
2022-10-05T05:18:48.852Z,99211.91
2022-10-05T05:23:12.643Z,99216.84
2022-10-05T05:27:30.346Z,99224.00
2022-10-05T05:31:57.627Z,99217.81
2022-10-05T05:36:48.459Z,99229.22
2022-10-05T05:41:22.600Z,99233.75
2022-10-05T05:46:00.433Z,99231.44
2022-10-05T05:50:41.671Z,99241.88
2022-10-05T05:54:59.904Z,99243.84
2022-10-05T05:59:25.972Z,99250.72
2022-10-05T06:03:44.365Z,99244.38
2022-10-05T06:08:24.439Z,99246.09
2022-10-05T06:12:49.476Z,99252.94
2022-10-05T06:17:07.449Z,99254.59
2022-10-05T06:21:32.363Z,99256.22
2022-10-05T06:26:10.448Z,99267.50
2022-10-05T06:30:23.281Z,99264.75
2022-10-05T06:34:43.986Z,99269.97
2022-10-05T06:39:15.922Z,99283.09
2022-10-05T06:43:46.399Z,99276.50
2022-10-05T06:48:56.140Z,99270.69
2022-10-05T06:53:40.725Z,99285.75
2022-10-05T06:58:07.031Z,99291.28
2022-10-05T07:02:31.555Z,99298.13
2022-10-05T07:07:03.274Z,99297.00
2022-10-05T07:11:20.594Z,99287.69
2022-10-05T07:15:40.054Z,99288.06
2022-10-05T07:20:13.650Z,99283.69
2022-10-05T07:24:43.003Z,99279.47
2022-10-05T07:29:06.847Z,99278.03
2022-10-05T07:33:30.154Z,99273.81
2022-10-05T07:37:57.848Z,99279.53
2022-10-05T07:42:52.217Z,99269.28
2022-10-05T07:47:35.359Z,99270.00
2022-10-05T07:51:59.604Z,99274.91
2022-10-05T07:56:23.840Z,99264.66
2022-10-05T08:00:56.879Z,99271.53
2022-10-05T08:05:21.415Z,99272.22
2022-10-05T08:09:46.426Z,99280.44
2022-10-05T08:14:06.495Z,99271.44
2022-10-05T08:18:42.049Z,99277.31
2022-10-05T08:23:01.597Z,99265.56
2022-10-05T08:27:20.155Z,99272.75
2022-10-05T08:31:35.002Z,99267.84
2022-10-05T08:36:19.355Z,99269.53
2022-10-05T08:40:57.021Z,99265.75
2022-10-05T08:45:55.544Z,99263.63
2022-10-05T08:50:25.756Z,99273.09
2022-10-05T08:54:52.767Z,99276.03
2022-10-05T08:59:27.774Z,99275.53
2022-10-05T09:03:57.940Z,99267.84
2022-10-05T09:08:40.472Z,99272.06
2022-10-05T09:13:19.486Z,99282.22
2022-10-05T09:18:00.884Z,99275.00
2022-10-05T09:22:15.082Z,99275.63
2022-10-05T09:26:45.161Z,99268.09
2022-10-05T09:31:04.067Z,99273.97
2022-10-05T09:35:34.392Z,99264.13
2022-10-05T09:40:05.471Z,99268.69
2022-10-05T09:44:54.783Z,99273.75
2022-10-05T09:49:28.659Z,99265.72
2022-10-05T09:54:15.947Z,99274.19
2022-10-05T09:58:51.754Z,99261.97
2022-10-05T10:03:42.868Z,99250.03
2022-10-05T10:08:04.569Z,99251.09
2022-10-05T10:12:28.248Z,99249.00
2022-10-05T10:16:45.811Z,99246.28
2022-10-05T10:21:33.169Z,99246.03
2022-10-05T10:26:09.112Z,99248.75
2022-10-05T10:30:26.322Z,99231.19
2022-10-05T10:35:11.498Z,99233.63
2022-10-05T10:39:45.139Z,99233.69
2022-10-05T10:44:15.118Z,99233.69
2022-10-05T10:48:29.580Z,99233.44
2022-10-05T10:53:05.923Z,99225.34
2022-10-05T10:57:29.548Z,99219.44
2022-10-05T11:02:05.918Z,99215.34
2022-10-05T11:06:39.395Z,99211.53
2022-10-05T11:10:58.783Z,99199.78
2022-10-05T11:15:36.233Z,99200.44
2022-10-05T11:20:32.713Z,99192.06
2022-10-05T11:25:18.655Z,99186.84
2022-10-05T11:30:07.659Z,99174.94
2022-10-05T11:34:29.168Z,99166.44
2022-10-05T11:38:43.728Z,99170.28
2022-10-05T11:43:04.132Z,99161.78
2022-10-05T11:47:15.568Z,99153.84
2022-10-05T11:51:42.178Z,99153.84
2022-10-05T11:56:18.668Z,99142.81
2022-10-05T12:00:45.952Z,99138.50
2022-10-05T12:05:18.173Z,99127.91
2022-10-05T12:10:17.433Z,99123.34
2022-10-05T12:14:44.479Z,99127.75
2022-10-05T12:19:21.977Z,99119.91
2022-10-05T12:23:42.419Z,99114.31
2022-10-05T12:28:00.670Z,99104.03
2022-10-05T12:32:26.411Z,99097.66
2022-10-05T12:37:05.491Z,99095.53
2022-10-05T12:41:40.931Z,99084.38
2022-10-05T12:46:07.763Z,99073.06
2022-10-05T12:50:27.192Z,99081.38
2022-10-05T12:54:58.256Z,99076.03
2022-10-05T12:59:41.174Z,99066.22
2022-10-05T13:04:10.335Z,99065.53
2022-10-05T13:08:51.311Z,99051.03
2022-10-05T13:13:23.998Z,99053.25
2022-10-05T13:18:01.409Z,99056.31
2022-10-05T13:22:35.782Z,99053.44
2022-10-05T13:26:56.490Z,99054.84
2022-10-05T13:31:27.205Z,99050.72
2022-10-05T13:35:43.863Z,99052.94
2022-10-05T13:40:24.218Z,99054.69
2022-10-05T13:44:55.762Z,99053.66
2022-10-05T13:49:29.403Z,99057.78
2022-10-05T13:53:49.958Z,99058.72
2022-10-05T13:58:10.307Z,99057.19
2022-10-05T14:02:31.082Z,99060.88
2022-10-05T14:06:43.424Z,99050.72
2022-10-05T14:10:56.127Z,99046.34
2022-10-05T14:15:27.939Z,99038.19
2022-10-05T14:19:51.099Z,99042.34
2022-10-05T14:24:42.393Z,99044.28
2022-10-05T14:29:14.137Z,99039.53
2022-10-05T14:33:33.268Z,99029.97
2022-10-05T14:37:56.313Z,99025.66
2022-10-05T14:42:46.291Z,99025.81
2022-10-05T14:47:11.921Z,99014.75
2022-10-05T14:51:32.135Z,99016.25
2022-10-05T14:56:19.824Z,99019.66
2022-10-05T15:00:45.580Z,99015.31
2022-10-05T15:05:08.598Z,99019.19
2022-10-05T15:09:49.194Z,99011.78
2022-10-05T15:14:01.952Z,99015.25
2022-10-05T15:18:17.184Z,99017.09
2022-10-05T15:22:40.548Z,99010.22
2022-10-05T15:26:52.017Z,99013.91
2022-10-05T15:31:11.282Z,99023.22
2022-10-05T15:35:31.991Z,99031.59
2022-10-05T15:39:55.425Z,99038.94
2022-10-05T15:44:31.546Z,99032.16
2022-10-05T15:49:08.350Z,99029.59
2022-10-05T15:53:34.983Z,99026.50
2022-10-05T15:58:20.911Z,99031.47
2022-10-05T16:02:55.401Z,99037.00
2022-10-05T16:07:34.644Z,99042.41
2022-10-05T16:11:58.990Z,99043.56
2022-10-05T16:16:52.699Z,99043.03
2022-10-05T16:21:29.220Z,99041.25
2022-10-05T16:26:09.034Z,99044.19
2022-10-05T16:30:22.898Z,99056.63
2022-10-05T16:35:10.710Z,99060.19
2022-10-05T16:39:48.400Z,99066.19
2022-10-05T16:44:20.062Z,99070.13
2022-10-05T16:48:36.690Z,99083.41
2022-10-05T16:52:55.380Z,99082.25
2022-10-05T16:57:38.946Z,99087.59
2022-10-05T17:02:02.498Z,99093.50
2022-10-05T17:06:35.247Z,99100.81
2022-10-05T17:11:24.237Z,99096.78
2022-10-05T17:16:13.582Z,99101.44
2022-10-05T17:20:42.707Z,99108.75
2022-10-05T17:25:03.608Z,99109.78
2022-10-05T17:29:52.638Z,99116.06
2022-10-05T17:34:26.219Z,99126.00
2022-10-05T17:38:46.841Z,99139.00
2022-10-05T17:43:17.193Z,99133.50
2022-10-05T17:48:08.614Z,99142.25
2022-10-05T17:52:42.403Z,99148.94
2022-10-05T17:56:56.918Z,99146.69
2022-10-05T18:01:24.588Z,99155.59
2022-10-05T18:05:36.245Z,99158.41
2022-10-05T18:10:16.905Z,99165.94
2022-10-05T18:14:28.871Z,99169.41
2022-10-05T18:18:43.380Z,99180.09
2022-10-05T18:23:00.834Z,99184.41
2022-10-05T18:27:33.980Z,99184.41
2022-10-05T18:32:02.907Z,99194.13
2022-10-05T18:36:38.022Z,99198.81
2022-10-05T18:41:13.606Z,99204.72
2022-10-05T18:45:43.792Z,99208.41
2022-10-05T18:49:58.441Z,99201.47
2022-10-05T18:54:25.029Z,99208.03
2022-10-05T18:59:00.734Z,99215.72
2022-10-05T19:03:25.811Z,99225.28
2022-10-05T19:07:59.298Z,99235.59
2022-10-05T19:12:19.685Z,99238.03
2022-10-05T19:16:43.317Z,99245.28
2022-10-05T19:21:01.812Z,99239.22
2022-10-05T19:25:34.738Z,99251.41
2022-10-05T19:30:12.207Z,99259.75
2022-10-05T19:34:32.867Z,99267.16
2022-10-05T19:39:03.887Z,99268.16
2022-10-05T19:43:50.520Z,99280.94
2022-10-05T19:48:19.138Z,99283.13
2022-10-05T19:52:44.179Z,99285.16
2022-10-05T19:57:01.931Z,99291.47
2022-10-05T20:01:24.176Z,99293.47
2022-10-05T20:05:35.860Z,99299.38
2022-10-05T20:10:00.601Z,99305.25
2022-10-05T20:14:13.728Z,99310.91
2022-10-05T20:19:06.576Z,99326.22
2022-10-05T20:23:22.354Z,99353.97
2022-10-05T20:27:39.899Z,99360.59
2022-10-05T20:31:51.594Z,99375.63
2022-10-05T20:36:03.613Z,99388.38
2022-10-05T20:40:18.627Z,99397.22
2022-10-05T20:44:31.033Z,99402.28
2022-10-05T20:48:42.602Z,99409.31
2022-10-05T20:52:57.189Z,99411.28
2022-10-05T20:57:09.522Z,99415.09
2022-10-05T21:01:23.517Z,99418.50
2022-10-05T21:05:35.057Z,99425.34
2022-10-05T21:09:46.938Z,99424.47
2022-10-05T21:14:02.105Z,99422.75
2022-10-05T21:18:17.121Z,99434.22
2022-10-05T21:22:28.625Z,99431.78
2022-10-05T21:26:41.616Z,99428.06
